<?xml version="1.0" encoding="UTF-8" standalone="no" ?>
<gpx xmlns="http://www.topografix.com/GPX/1/1" xmlns:xsi="http://www.w3.org/2001/XMLSchema-instance" xsi:schemaLocation="http://www.topografix.com/GPX/1/1 http://www.topografix.com/GPX/1/1/gpx.xsd" version="1.1" creator="VisuGPX - https://www.visugpx.com">
  <metadata>
    <name>Sous la dent de Bedina</name>
    <desc><![CDATA[1er neiges de la saison 2017/2018 avec Gaspard. Pour sortir de l'autoroute Grenoblois, Les Vans]]></desc>
  </metadata>
  <trk>
    <name><![CDATA[Sous la dent de Bedina : 18 nov. 2017 10:00:10]]></name>
    <trkseg>
      <trkpt lat="45.24802" lon="5.99437">
        <ele>1363.9920818</ele>
        <time>2017-11-18T09:00:10Z</time>
      </trkpt>
      <trkpt lat="45.24786" lon="5.9944">
        <ele>1383.9914318</ele>
        <time>2017-11-18T09:02:24Z</time>
      </trkpt>
      <trkpt lat="45.24679" lon="5.99443">
        <ele>1399.9871416</ele>
        <time>2017-11-18T09:03:57Z</time>
      </trkpt>
      <trkpt lat="45.24676" lon="5.99441">
        <ele>1397.987047</ele>
        <time>2017-11-18T09:05:31Z</time>
      </trkpt>
      <trkpt lat="45.24628" lon="5.99573">
        <ele>1426.9851353</ele>
        <time>2017-11-18T09:07:02Z</time>
      </trkpt>
      <trkpt lat="45.24564" lon="5.9964">
        <ele>1378.9825657</ele>
        <time>2017-11-18T09:08:33Z</time>
      </trkpt>
      <trkpt lat="45.24541" lon="5.99674">
        <ele>1320.981642</ele>
        <time>2017-11-18T09:09:08Z</time>
      </trkpt>
      <trkpt lat="45.24552" lon="5.99664">
        <ele>1382.9820694</ele>
        <time>2017-11-18T09:09:11Z</time>
      </trkpt>
      <trkpt lat="45.245" lon="5.99724">
        <ele>1422.9800032</ele>
        <time>2017-11-18T09:11:07Z</time>
      </trkpt>
      <trkpt lat="45.2437" lon="5.99835">
        <ele>1544.9748138</ele>
        <time>2017-11-18T09:13:52Z</time>
      </trkpt>
      <trkpt lat="45.24365" lon="5.9982">
        <ele>1421.9745932</ele>
        <time>2017-11-18T09:14:23Z</time>
      </trkpt>
      <trkpt lat="45.24334" lon="5.99826">
        <ele>1416.9733695</ele>
        <time>2017-11-18T09:15:53Z</time>
      </trkpt>
      <trkpt lat="45.24402" lon="5.99823">
        <ele>1523.9760972</ele>
        <time>2017-11-18T09:17:48Z</time>
      </trkpt>
      <trkpt lat="45.24414" lon="5.99857">
        <ele>1434.9765732</ele>
        <time>2017-11-18T09:19:22Z</time>
      </trkpt>
      <trkpt lat="45.24407" lon="5.9986">
        <ele>1452.9762602</ele>
        <time>2017-11-18T09:20:20Z</time>
      </trkpt>
      <trkpt lat="45.24386" lon="5.99896">
        <ele>1454.97542</ele>
        <time>2017-11-18T09:20:35Z</time>
      </trkpt>
      <trkpt lat="45.24385" lon="5.9991">
        <ele>1459.9754152</ele>
        <time>2017-11-18T09:21:10Z</time>
      </trkpt>
      <trkpt lat="45.24364" lon="5.99961">
        <ele>1484.974555</ele>
        <time>2017-11-18T09:22:19Z</time>
      </trkpt>
      <trkpt lat="45.24373" lon="6.00003">
        <ele>1470.9748096</ele>
        <time>2017-11-18T09:23:53Z</time>
      </trkpt>
      <trkpt lat="45.24371" lon="6.00041">
        <ele>1470.9732187</ele>
        <time>2017-11-18T09:25:37Z</time>
      </trkpt>
      <trkpt lat="45.24382" lon="6.00034">
        <ele>1475.9739344</ele>
        <time>2017-11-18T09:26:40Z</time>
      </trkpt>
      <trkpt lat="45.24365" lon="6.00016">
        <ele>1501.973957</ele>
        <time>2017-11-18T09:27:15Z</time>
      </trkpt>
      <trkpt lat="45.24372" lon="6.0003">
        <ele>1526.973698</ele>
        <time>2017-11-18T09:27:25Z</time>
      </trkpt>
      <trkpt lat="45.24329" lon="6.00059">
        <ele>1505.970804</ele>
        <time>2017-11-18T09:29:20Z</time>
      </trkpt>
      <trkpt lat="45.24347" lon="6.00092">
        <ele>1536.9701983</ele>
        <time>2017-11-18T09:30:30Z</time>
      </trkpt>
      <trkpt lat="45.24337" lon="6.00121">
        <ele>1520.9686575</ele>
        <time>2017-11-18T09:31:47Z</time>
      </trkpt>
      <trkpt lat="45.2435" lon="6.00158">
        <ele>1486.9676643</ele>
        <time>2017-11-18T09:33:17Z</time>
      </trkpt>
      <trkpt lat="45.2433" lon="6.00173">
        <ele>1524.9663122</ele>
        <time>2017-11-18T09:34:47Z</time>
      </trkpt>
      <trkpt lat="45.24316" lon="6.00228">
        <ele>1530.963528</ele>
        <time>2017-11-18T09:36:14Z</time>
      </trkpt>
      <trkpt lat="45.24255" lon="6.00273">
        <ele>1399.9592765</ele>
        <time>2017-11-18T09:37:43Z</time>
      </trkpt>
      <trkpt lat="45.24267" lon="6.00282">
        <ele>1432.9594012</ele>
        <time>2017-11-18T09:43:08Z</time>
      </trkpt>
      <trkpt lat="45.24353" lon="6.00395">
        <ele>1597.9582896</ele>
        <time>2017-11-18T09:44:55Z</time>
      </trkpt>
      <trkpt lat="45.24366" lon="6.00411">
        <ele>1556.9581985</ele>
        <time>2017-11-18T09:50:18Z</time>
      </trkpt>
      <trkpt lat="45.24367" lon="6.00426">
        <ele>1553.9576466</ele>
        <time>2017-11-18T09:53:45Z</time>
      </trkpt>
      <trkpt lat="45.24373" lon="6.00445">
        <ele>1549.9571332</ele>
        <time>2017-11-18T09:57:51Z</time>
      </trkpt>
      <trkpt lat="45.24388" lon="6.00503">
        <ele>1580.9553996</ele>
        <time>2017-11-18T09:59:36Z</time>
      </trkpt>
      <trkpt lat="45.24356" lon="6.00524">
        <ele>1632.9532842</ele>
        <time>2017-11-18T10:01:07Z</time>
      </trkpt>
      <trkpt lat="45.24313" lon="6.00549">
        <ele>1617.9505566</ele>
        <time>2017-11-18T10:02:17Z</time>
      </trkpt>
      <trkpt lat="45.24256" lon="6.00586">
        <ele>1624.9468028</ele>
        <time>2017-11-18T10:03:52Z</time>
      </trkpt>
      <trkpt lat="45.24184" lon="6.0071">
        <ele>1613.9389771</ele>
        <time>2017-11-18T10:07:28Z</time>
      </trkpt>
      <trkpt lat="45.24196" lon="6.00772">
        <ele>1639.9369877</ele>
        <time>2017-11-18T10:08:43Z</time>
      </trkpt>
      <trkpt lat="45.24183" lon="6.00833">
        <ele>1693.9339996</ele>
        <time>2017-11-18T10:09:59Z</time>
      </trkpt>
      <trkpt lat="45.24145" lon="6.00836">
        <ele>1628.932334</ele>
        <time>2017-11-18T10:11:36Z</time>
      </trkpt>
      <trkpt lat="45.24105" lon="6.00873">
        <ele>1689.9292673</ele>
        <time>2017-11-18T10:13:02Z</time>
      </trkpt>
      <trkpt lat="45.24108" lon="6.00876">
        <ele>1703.9293031</ele>
        <time>2017-11-18T10:14:36Z</time>
      </trkpt>
      <trkpt lat="45.24079" lon="6.00845">
        <ele>1698.9293463</ele>
        <time>2017-11-18T10:15:49Z</time>
      </trkpt>
      <trkpt lat="45.24039" lon="6.00806">
        <ele>1721.929315</ele>
        <time>2017-11-18T10:17:20Z</time>
      </trkpt>
      <trkpt lat="45.24011" lon="6.00791">
        <ele>1725.9288126</ele>
        <time>2017-11-18T10:18:52Z</time>
      </trkpt>
      <trkpt lat="45.23988" lon="6.00826">
        <ele>1714.9265079</ele>
        <time>2017-11-18T10:20:23Z</time>
      </trkpt>
      <trkpt lat="45.23977" lon="6.0087">
        <ele>1752.9242778</ele>
        <time>2017-11-18T10:21:33Z</time>
      </trkpt>
      <trkpt lat="45.23946" lon="6.00893">
        <ele>1717.92214</ele>
        <time>2017-11-18T10:22:55Z</time>
      </trkpt>
      <trkpt lat="45.23913" lon="6.00929">
        <ele>1756.9193644</ele>
        <time>2017-11-18T10:24:24Z</time>
      </trkpt>
      <trkpt lat="45.23891" lon="6.00992">
        <ele>1770.9159765</ele>
        <time>2017-11-18T10:25:58Z</time>
      </trkpt>
      <trkpt lat="45.23867" lon="6.0103">
        <ele>1796.9134768</ele>
        <time>2017-11-18T10:27:28Z</time>
      </trkpt>
      <trkpt lat="45.23833" lon="6.01078">
        <ele>1799.9101683</ele>
        <time>2017-11-18T10:28:39Z</time>
      </trkpt>
      <trkpt lat="45.23832" lon="6.01091">
        <ele>1791.9096379</ele>
        <time>2017-11-18T10:30:09Z</time>
      </trkpt>
      <trkpt lat="45.23795" lon="6.01122">
        <ele>1826.9069381</ele>
        <time>2017-11-18T10:31:41Z</time>
      </trkpt>
      <trkpt lat="45.23771" lon="6.01105">
        <ele>1849.9066283</ele>
        <time>2017-11-18T10:33:13Z</time>
      </trkpt>
      <trkpt lat="45.23779" lon="6.01129">
        <ele>1847.9060243</ele>
        <time>2017-11-18T10:34:45Z</time>
      </trkpt>
      <trkpt lat="45.23778" lon="6.01135">
        <ele>1844.9057076</ele>
        <time>2017-11-18T10:36:12Z</time>
      </trkpt>
      <trkpt lat="45.23713" lon="6.01179">
        <ele>1846.9013264</ele>
        <time>2017-11-18T10:38:03Z</time>
      </trkpt>
      <trkpt lat="45.23723" lon="6.0121">
        <ele>1851.9005198</ele>
        <time>2017-11-18T10:39:38Z</time>
      </trkpt>
      <trkpt lat="45.23758" lon="6.0123">
        <ele>1881.9010982</ele>
        <time>2017-11-18T10:41:00Z</time>
      </trkpt>
      <trkpt lat="45.23727" lon="6.01304">
        <ele>1855.8969318</ele>
        <time>2017-11-18T10:42:45Z</time>
      </trkpt>
      <trkpt lat="45.23731" lon="6.0136">
        <ele>1867.8948416</ele>
        <time>2017-11-18T10:44:34Z</time>
      </trkpt>
      <trkpt lat="45.23738" lon="6.01361">
        <ele>1865.8950749</ele>
        <time>2017-11-18T10:47:07Z</time>
      </trkpt>
      <trkpt lat="45.23779" lon="6.01354">
        <ele>1911.8969763</ele>
        <time>2017-11-18T10:47:22Z</time>
      </trkpt>
      <trkpt lat="45.23791" lon="6.01354">
        <ele>1928.8974677</ele>
        <time>2017-11-18T10:52:38Z</time>
      </trkpt>
      <trkpt lat="45.23817" lon="6.01376">
        <ele>1980.8976666</ele>
        <time>2017-11-18T10:53:56Z</time>
      </trkpt>
      <trkpt lat="45.23765" lon="6.01404">
        <ele>1958.8944402</ele>
        <time>2017-11-18T10:55:31Z</time>
      </trkpt>
      <trkpt lat="45.23695" lon="6.01419">
        <ele>1949.8910409</ele>
        <time>2017-11-18T10:57:13Z</time>
      </trkpt>
      <trkpt lat="45.23618" lon="6.01425">
        <ele>1883.8877507</ele>
        <time>2017-11-18T10:58:31Z</time>
      </trkpt>
      <trkpt lat="45.23636" lon="6.01413">
        <ele>1944.8889458</ele>
        <time>2017-11-18T11:00:01Z</time>
      </trkpt>
      <trkpt lat="45.23624" lon="6.01422">
        <ele>1976.8881102</ele>
        <time>2017-11-18T11:01:40Z</time>
      </trkpt>
      <trkpt lat="45.23561" lon="6.0144">
        <ele>1937.8848301</ele>
        <time>2017-11-18T11:02:55Z</time>
      </trkpt>
      <trkpt lat="45.23552" lon="6.01442">
        <ele>1970.8843852</ele>
        <time>2017-11-18T11:04:28Z</time>
      </trkpt>
      <trkpt lat="45.23545" lon="6.01451">
        <ele>1974.883738</ele>
        <time>2017-11-18T11:06:00Z</time>
      </trkpt>
      <trkpt lat="45.23572" lon="6.01466">
        <ele>2036.8842484</ele>
        <time>2017-11-18T11:07:36Z</time>
      </trkpt>
      <trkpt lat="45.23575" lon="6.01479">
        <ele>2029.8838509</ele>
        <time>2017-11-18T11:12:02Z</time>
      </trkpt>
      <trkpt lat="45.23482" lon="6.01505">
        <ele>2081.8790685</ele>
        <time>2017-11-18T11:13:38Z</time>
      </trkpt>
      <trkpt lat="45.23499" lon="6.01517">
        <ele>2081.8792612</ele>
        <time>2017-11-18T11:15:11Z</time>
      </trkpt>
      <trkpt lat="45.23501" lon="6.01537">
        <ele>2059.8785395</ele>
        <time>2017-11-18T11:16:19Z</time>
      </trkpt>
      <trkpt lat="45.23476" lon="6.01575">
        <ele>2034.8760419</ele>
        <time>2017-11-18T11:18:01Z</time>
      </trkpt>
      <trkpt lat="45.23467" lon="6.01588">
        <ele>2074.8751602</ele>
        <time>2017-11-18T11:22:14Z</time>
      </trkpt>
      <trkpt lat="45.23445" lon="6.01666">
        <ele>2098.8711707</ele>
        <time>2017-11-18T11:23:45Z</time>
      </trkpt>
      <trkpt lat="45.23454" lon="6.01696">
        <ele>2103.870331</ele>
        <time>2017-11-18T11:25:14Z</time>
      </trkpt>
      <trkpt lat="45.23494" lon="6.01686">
        <ele>2237.872342</ele>
        <time>2017-11-18T11:26:45Z</time>
      </trkpt>
      <trkpt lat="45.23485" lon="6.01699">
        <ele>2185.8714429</ele>
        <time>2017-11-18T11:28:07Z</time>
      </trkpt>
      <trkpt lat="45.2351" lon="6.01781">
        <ele>2157.8691669</ele>
        <time>2017-11-18T11:30:51Z</time>
      </trkpt>
      <trkpt lat="45.23511" lon="6.01798">
        <ele>2116.8685373</ele>
        <time>2017-11-18T11:32:24Z</time>
      </trkpt>
      <trkpt lat="45.23538" lon="6.01877">
        <ele>2189.866434</ele>
        <time>2017-11-18T11:33:56Z</time>
      </trkpt>
      <trkpt lat="45.23551" lon="6.01893">
        <ele>2181.8663052</ele>
        <time>2017-11-18T11:35:15Z</time>
      </trkpt>
      <trkpt lat="45.23564" lon="6.01934">
        <ele>2196.8652082</ele>
        <time>2017-11-18T11:36:26Z</time>
      </trkpt>
      <trkpt lat="45.23591" lon="6.01943">
        <ele>2186.8659233</ele>
        <time>2017-11-18T11:38:09Z</time>
      </trkpt>
      <trkpt lat="45.23538" lon="6.01963">
        <ele>2217.863019</ele>
        <time>2017-11-18T11:41:06Z</time>
      </trkpt>
      <trkpt lat="45.23531" lon="6.01978">
        <ele>2233.8620937</ele>
        <time>2017-11-18T11:44:06Z</time>
      </trkpt>
      <trkpt lat="45.23542" lon="6.01996">
        <ele>2221.861848</ele>
        <time>2017-11-18T11:45:51Z</time>
      </trkpt>
      <trkpt lat="45.2353" lon="6.02014">
        <ele>2239.8606349</ele>
        <time>2017-11-18T11:48:56Z</time>
      </trkpt>
      <trkpt lat="45.23546" lon="6.02022">
        <ele>2264.8609385</ele>
        <time>2017-11-18T11:50:38Z</time>
      </trkpt>
      <trkpt lat="45.23538" lon="6.02035">
        <ele>2251.8601182</ele>
        <time>2017-11-18T11:55:03Z</time>
      </trkpt>
      <trkpt lat="45.23532" lon="6.02059">
        <ele>2283.8589424</ele>
        <time>2017-11-18T12:05:21Z</time>
      </trkpt>
      <trkpt lat="45.23541" lon="6.02062">
        <ele>2300.8591533</ele>
        <time>2017-11-18T12:08:53Z</time>
      </trkpt>
      <trkpt lat="45.23518" lon="6.02106">
        <ele>2303.856506</ele>
        <time>2017-11-18T12:11:28Z</time>
      </trkpt>
      <trkpt lat="45.23514" lon="6.02082">
        <ele>2325.8572636</ele>
        <time>2017-11-18T12:25:17Z</time>
      </trkpt>
      <trkpt lat="45.23514" lon="6.02096">
        <ele>2306.8567124</ele>
        <time>2017-11-18T12:38:10Z</time>
      </trkpt>
      <trkpt lat="45.23538" lon="6.02058">
        <ele>2215.8592086</ele>
        <time>2017-11-18T12:39:56Z</time>
      </trkpt>
      <trkpt lat="45.23471" lon="6.01635">
        <ele>2104.8734568</ele>
        <time>2017-11-18T12:43:00Z</time>
      </trkpt>
      <trkpt lat="45.23478" lon="6.01615">
        <ele>2098.8745176</ele>
        <time>2017-11-18T12:44:30Z</time>
      </trkpt>
      <trkpt lat="45.23518" lon="6.01515">
        <ele>2048.8800901</ele>
        <time>2017-11-18T12:47:14Z</time>
      </trkpt>
      <trkpt lat="45.23542" lon="6.01505">
        <ele>2039.8814715</ele>
        <time>2017-11-18T12:49:00Z</time>
      </trkpt>
      <trkpt lat="45.236" lon="6.01433">
        <ele>1991.8867098</ele>
        <time>2017-11-18T12:50:39Z</time>
      </trkpt>
      <trkpt lat="45.2365" lon="6.01404">
        <ele>1958.8898261</ele>
        <time>2017-11-18T12:52:32Z</time>
      </trkpt>
      <trkpt lat="45.23771" lon="6.01321">
        <ele>1884.8980042</ele>
        <time>2017-11-18T12:54:04Z</time>
      </trkpt>
      <trkpt lat="45.23758" lon="6.01254">
        <ele>1895.9001337</ele>
        <time>2017-11-18T12:55:36Z</time>
      </trkpt>
      <trkpt lat="45.23757" lon="6.01124">
        <ele>1866.9053105</ele>
        <time>2017-11-18T12:57:07Z</time>
      </trkpt>
      <trkpt lat="45.23854" lon="6.01098">
        <ele>1829.9102401</ele>
        <time>2017-11-18T12:58:37Z</time>
      </trkpt>
      <trkpt lat="45.23942" lon="6.01001">
        <ele>1790.9176185</ele>
        <time>2017-11-18T12:59:47Z</time>
      </trkpt>
      <trkpt lat="45.23963" lon="6.00899">
        <ele>1752.922587</ele>
        <time>2017-11-18T13:01:07Z</time>
      </trkpt>
      <trkpt lat="45.24005" lon="6.00806">
        <ele>1743.9279423</ele>
        <time>2017-11-18T13:02:40Z</time>
      </trkpt>
      <trkpt lat="45.24197" lon="6.00713">
        <ele>1652.939364</ele>
        <time>2017-11-18T13:05:42Z</time>
      </trkpt>
      <trkpt lat="45.24244" lon="6.00723">
        <ele>1631.9408023</ele>
        <time>2017-11-18T13:07:14Z</time>
      </trkpt>
      <trkpt lat="45.24218" lon="6.00732">
        <ele>1647.939439</ele>
        <time>2017-11-18T13:08:26Z</time>
      </trkpt>
      <trkpt lat="45.24218" lon="6.00724">
        <ele>1633.9397782</ele>
        <time>2017-11-18T13:09:43Z</time>
      </trkpt>
      <trkpt lat="45.24186" lon="6.00631">
        <ele>1654.9421885</ele>
        <time>2017-11-18T13:12:20Z</time>
      </trkpt>
      <trkpt lat="45.24198" lon="6.00636">
        <ele>1664.9424651</ele>
        <time>2017-11-18T13:13:29Z</time>
      </trkpt>
      <trkpt lat="45.24191" lon="6.00696">
        <ele>1623.9397922</ele>
        <time>2017-11-18T13:16:17Z</time>
      </trkpt>
      <trkpt lat="45.24194" lon="6.00683">
        <ele>1637.9404226</ele>
        <time>2017-11-18T13:18:57Z</time>
      </trkpt>
      <trkpt lat="45.24415" lon="6.00463">
        <ele>1606.9580475</ele>
        <time>2017-11-18T13:20:27Z</time>
      </trkpt>
      <trkpt lat="45.24585" lon="6.00112">
        <ele>1539.9789238</ele>
        <time>2017-11-18T13:22:04Z</time>
      </trkpt>
      <trkpt lat="45.24618" lon="5.99858">
        <ele>1489.9847338</ele>
        <time>2017-11-18T13:23:36Z</time>
      </trkpt>
      <trkpt lat="45.24628" lon="5.99837">
        <ele>1491.9851164</ele>
        <time>2017-11-18T13:25:10Z</time>
      </trkpt>
      <trkpt lat="45.24974" lon="5.99508">
        <ele>1370.9989418</ele>
        <time>2017-11-18T13:27:38Z</time>
      </trkpt>
      <trkpt lat="45.24957" lon="5.995">
        <ele>1401.9982942</ele>
        <time>2017-11-18T13:29:01Z</time>
      </trkpt>
      <trkpt lat="45.24858" lon="5.99507">
        <ele>1389.9943069</ele>
        <time>2017-11-18T13:30:33Z</time>
      </trkpt>
      <trkpt lat="45.24814" lon="5.99535">
        <ele>1358.9925739</ele>
        <time>2017-11-18T13:32:06Z</time>
      </trkpt>
      <trkpt lat="45.2479" lon="5.99449">
        <ele>1367.9915928</ele>
        <time>2017-11-18T13:33:36Z</time>
      </trkpt>
      <trkpt lat="45.24814" lon="5.9944">
        <ele>1355.992541</ele>
        <time>2017-11-18T13:34:08Z</time>
      </trkpt>
      <trkpt lat="45.24814" lon="5.9944">
        <ele>1355.992541</ele>
        <time>2017-11-18T13:34:10Z</time>
      </trkpt>
    </trkseg>
  </trk>
</gpx>